sensor_id;sensor_type;location;lat;lon;timestamp;temperature;humidity
9666;DHT22;4871;52.004;5.924;2024-03-25T00:00:00;5.9;88.8
9666;DHT22;4871;52.004;5.924;2024-03-25T00:01:00;5.9;88.7
9666;DHT22;4871;52.004;5.924;2024-03-25T00:02:00;5.9;88.8
9666;DHT22;4871;52.004;5.924;2024-03-25T00:03:00;5.9;88.9
9666;DHT22;4871;52.004;5.924;2024-03-25T00:04:00;5.9;88.4
9666;DHT22;4871;52.004;5.924;2024-03-25T00:05:00;5.9;88.8
9666;DHT22;4871;52.004;5.924;2024-03-25T00:06:00;5.9;88.7
9666;DHT22;4871;52.004;5.924;2024-03-25T00:07:00;5.9;88.6
9666;DHT22;4871;52.004;5.924;2024-03-25T00:08:00;5.9;88.8
9666;DHT22;4871;52.004;5.924;2024-03-25T00:09:00;5.9;88.9
9666;DHT22;4871;52.004;5.924;2024-03-25T00:10:00;5.9;88.3
9666;DHT22;4871;52.004;5.924;2024-03-25T00:11:00;5.9;88.6
9666;DHT22;4871;52.004;5.924;2024-03-25T00:12:00;5.8;88.8
9666;DHT22;4871;52.004;5.924;2024-03-25T00:13:00;5.8;88.9
9666;DHT22;4871;52.004;5.924;2024-03-25T00:14:00;5.8;88.9
9666;DHT22;4871;52.004;5.924;2024-03-25T00:15:00;5.8;88.7
9666;DHT22;4871;52.004;5.924;2024-03-25T00:16:00;5.8;88.7
9666;DHT22;4871;52.004;5.924;2024-03-25T00:17:01;5.8;88.7
9666;DHT22;4871;52.004;5.924;2024-03-25T00:18:01;5.8;88.6
9666;DHT22;4871;52.004;5.924;2024-03-25T00:19:00;5.8;88.7
9666;DHT22;4871;52.004;5.924;2024-03-25T00:20:00;5.8;88.8
9666;DHT22;4871;52.004;5.924;2024-03-25T00:21:00;5.8;88.8
9666;DHT22;4871;52.004;5.924;2024-03-25T00:22:00;5.8;88.9
9666;DHT22;4871;52.004;5.924;2024-03-25T00:23:00;5.8;88.9
9666;DHT22;4871;52.004;5.924;2024-03-25T00:24:00;5.8;88.7
9666;DHT22;4871;52.004;5.924;2024-03-25T00:25:00;5.8;88.8
9666;DHT22;4871;52.004;5.924;2024-03-25T00:26:00;5.8;88.7
9666;DHT22;4871;52.004;5.924;2024-03-25T00:27:00;5.8;88.7
9666;DHT22;4871;52.004;5.924;2024-03-25T00:28:00;5.7;88.7
9666;DHT22;4871;52.004;5.924;2024-03-25T00:29:00;5.8;88.6
9666;DHT22;4871;52.004;5.924;2024-03-25T00:30:00;5.7;88.4
9666;DHT22;4871;52.004;5.924;2024-03-25T00:31:00;5.7;88.8
9666;DHT22;4871;52.004;5.924;2024-03-25T00:32:00;5.7;88.7
9666;DHT22;4871;52.004;5.924;2024-03-25T00:33:00;5.7;88.5
9666;DHT22;4871;52.004;5.924;2024-03-25T00:34:00;5.7;88.8
9666;DHT22;4871;52.004;5.924;2024-03-25T00:35:00;5.7;88.7
9666;DHT22;4871;52.004;5.924;2024-03-25T00:36:00;5.7;89.0
9666;DHT22;4871;52.004;5.924;2024-03-25T00:37:00;5.7;88.8
9666;DHT22;4871;52.004;5.924;2024-03-25T00:38:00;5.7;88.8
9666;DHT22;4871;52.004;5.924;2024-03-25T00:39:00;5.7;88.5
9666;DHT22;4871;52.004;5.924;2024-03-25T00:40:00;5.7;88.8
9666;DHT22;4871;52.004;5.924;2024-03-25T00:41:00;5.7;88.7
9666;DHT22;4871;52.004;5.924;2024-03-25T00:42:01;5.7;88.6
9666;DHT22;4871;52.004;5.924;2024-03-25T00:43:00;5.7;88.7
9666;DHT22;4871;52.004;5.924;2024-03-25T00:44:00;5.6;88.7
9666;DHT22;4871;52.004;5.924;2024-03-25T00:45:01;5.7;88.5
9666;DHT22;4871;52.004;5.924;2024-03-25T00:46:00;5.6;88.6
9666;DHT22;4871;52.004;5.924;2024-03-25T00:47:00;5.6;88.9
9666;DHT22;4871;52.004;5.924;2024-03-25T00:48:00;5.6;88.7
9666;DHT22;4871;52.004;5.924;2024-03-25T00:49:00;5.6;88.8
9666;DHT22;4871;52.004;5.924;2024-03-25T00:50:00;5.6;89.0
9666;DHT22;4871;52.004;5.924;2024-03-25T00:51:00;5.6;88.8
9666;DHT22;4871;52.004;5.924;2024-03-25T00:52:00;5.6;88.5
9666;DHT22;4871;52.004;5.924;2024-03-25T00:53:00;5.6;88.6
9666;DHT22;4871;52.004;5.924;2024-03-25T00:54:00;5.6;88.7
9666;DHT22;4871;52.004;5.924;2024-03-25T00:55:00;5.6;88.6
9666;DHT22;4871;52.004;5.924;2024-03-25T00:56:00;5.6;88.5
9666;DHT22;4871;52.004;5.924;2024-03-25T00:57:00;5.7;88.8
9666;DHT22;4871;52.004;5.924;2024-03-25T00:58:00;5.6;88.5
9666;DHT22;4871;52.004;5.924;2024-03-25T00:59:02;5.6;88.6
9666;DHT22;4871;52.004;5.924;2024-03-25T01:00:00;5.6;88.8
9666;DHT22;4871;52.004;5.924;2024-03-25T01:01:00;5.6;88.8
9666;DHT22;4871;52.004;5.924;2024-03-25T01:02:00;5.7;88.8
9666;DHT22;4871;52.004;5.924;2024-03-25T01:03:00;5.7;88.5
9666;DHT22;4871;52.004;5.924;2024-03-25T01:04:00;5.6;88.5
9666;DHT22;4871;52.004;5.924;2024-03-25T01:05:00;5.6;88.8
9666;DHT22;4871;52.004;5.924;2024-03-25T01:06:00;5.6;88.6
9666;DHT22;4871;52.004;5.924;2024-03-25T01:07:00;5.6;88.8
9666;DHT22;4871;52.004;5.924;2024-03-25T01:08:00;5.6;88.8
9666;DHT22;4871;52.004;5.924;2024-03-25T01:09:00;5.6;88.8
9666;DHT22;4871;52.004;5.924;2024-03-25T01:10:00;5.6;88.6
9666;DHT22;4871;52.004;5.924;2024-03-25T01:11:00;5.6;88.7
9666;DHT22;4871;52.004;5.924;2024-03-25T01:12:00;5.6;88.7
9666;DHT22;4871;52.004;5.924;2024-03-25T01:13:00;5.6;88.7
9666;DHT22;4871;52.004;5.924;2024-03-25T01:14:00;5.6;88.7
9666;DHT22;4871;52.004;5.924;2024-03-25T01:15:02;5.6;88.7
9666;DHT22;4871;52.004;5.924;2024-03-25T01:16:00;5.6;88.6
9666;DHT22;4871;52.004;5.924;2024-03-25T01:17:00;5.5;88.7
9666;DHT22;4871;52.004;5.924;2024-03-25T01:18:00;5.5;88.7
9666;DHT22;4871;52.004;5.924;2024-03-25T01:19:00;5.5;88.7
9666;DHT22;4871;52.004;5.924;2024-03-25T01:20:00;5.5;88.9
9666;DHT22;4871;52.004;5.924;2024-03-25T01:21:00;5.5;88.6
9666;DHT22;4871;52.004;5.924;2024-03-25T01:22:00;5.5;88.6
9666;DHT22;4871;52.004;5.924;2024-03-25T01:23:00;5.5;88.6
9666;DHT22;4871;52.004;5.924;2024-03-25T01:24:00;5.5;88.6
9666;DHT22;4871;52.004;5.924;2024-03-25T01:25:00;5.5;88.7
9666;DHT22;4871;52.004;5.924;2024-03-25T01:26:00;5.5;88.5
9666;DHT22;4871;52.004;5.924;2024-03-25T01:27:00;5.5;88.6
9666;DHT22;4871;52.004;5.924;2024-03-25T01:28:00;5.5;88.5
9666;DHT22;4871;52.004;5.924;2024-03-25T01:29:00;5.5;88.7
9666;DHT22;4871;52.004;5.924;2024-03-25T01:30:01;5.5;88.7
9666;DHT22;4871;52.004;5.924;2024-03-25T01:31:00;5.5;88.6
9666;DHT22;4871;52.004;5.924;2024-03-25T01:32:03;5.5;88.4
9666;DHT22;4871;52.004;5.924;2024-03-25T01:33:00;5.5;88.4
9666;DHT22;4871;52.004;5.924;2024-03-25T01:34:00;5.5;88.5
9666;DHT22;4871;52.004;5.924;2024-03-25T01:35:00;5.4;88.5
9666;DHT22;4871;52.004;5.924;2024-03-25T01:36:00;5.4;88.6
9666;DHT22;4871;52.004;5.924;2024-03-25T01:37:00;5.4;88.6
9666;DHT22;4871;52.004;5.924;2024-03-25T01:38:00;5.4;88.7
9666;DHT22;4871;52.004;5.924;2024-03-25T01:39:00;5.4;88.5
9666;DHT22;4871;52.004;5.924;2024-03-25T01:40:00;5.4;88.7
9666;DHT22;4871;52.004;5.924;2024-03-25T01:41:07;5.4;88.5
9666;DHT22;4871;52.004;5.924;2024-03-25T01:42:00;5.4;88.8
9666;DHT22;4871;52.004;5.924;2024-03-25T01:43:02;5.4;88.6
9666;DHT22;4871;52.004;5.924;2024-03-25T01:44:02;5.4;88.5
9666;DHT22;4871;52.004;5.924;2024-03-25T01:45:01;5.4;88.5
9666;DHT22;4871;52.004;5.924;2024-03-25T01:46:00;5.4;88.7
9666;DHT22;4871;52.004;5.924;2024-03-25T01:47:01;5.3;88.7
9666;DHT22;4871;52.004;5.924;2024-03-25T01:48:02;5.3;88.8
9666;DHT22;4871;52.004;5.924;2024-03-25T01:49:00;5.3;88.7
9666;DHT22;4871;52.004;5.924;2024-03-25T01:50:01;5.3;88.7
9666;DHT22;4871;52.004;5.924;2024-03-25T01:51:01;5.3;88.6
9666;DHT22;4871;52.004;5.924;2024-03-25T01:52:00;5.3;88.7
9666;DHT22;4871;52.004;5.924;2024-03-25T01:53:01;5.3;88.7
9666;DHT22;4871;52.004;5.924;2024-03-25T01:54:01;5.3;89.0
9666;DHT22;4871;52.004;5.924;2024-03-25T01:55:04;5.3;88.6
9666;DHT22;4871;52.004;5.924;2024-03-25T01:56:01;5.3;88.9
9666;DHT22;4871;52.004;5.924;2024-03-25T01:57:00;5.3;88.6
9666;DHT22;4871;52.004;5.924;2024-03-25T01:58:01;5.3;88.5
9666;DHT22;4871;52.004;5.924;2024-03-25T01:59:00;5.3;88.5
9666;DHT22;4871;52.004;5.924;2024-03-25T02:00:00;5.3;88.5
9666;DHT22;4871;52.004;5.924;2024-03-25T02:01:02;5.3;88.6
9666;DHT22;4871;52.004;5.924;2024-03-25T02:02:00;5.3;88.8
9666;DHT22;4871;52.004;5.924;2024-03-25T02:03:00;5.3;88.7
9666;DHT22;4871;52.004;5.924;2024-03-25T02:04:00;5.3;88.6
9666;DHT22;4871;52.004;5.924;2024-03-25T02:05:02;5.3;88.5
9666;DHT22;4871;52.004;5.924;2024-03-25T02:06:02;5.3;88.7
9666;DHT22;4871;52.004;5.924;2024-03-25T02:07:01;5.3;88.7
9666;DHT22;4871;52.004;5.924;2024-03-25T02:08:01;5.3;88.5
9666;DHT22;4871;52.004;5.924;2024-03-25T02:09:01;5.3;88.5
9666;DHT22;4871;52.004;5.924;2024-03-25T02:10:00;5.3;88.7
9666;DHT22;4871;52.004;5.924;2024-03-25T02:11:01;5.3;88.5
9666;DHT22;4871;52.004;5.924;2024-03-25T02:12:01;5.3;88.5
9666;DHT22;4871;52.004;5.924;2024-03-25T02:13:01;5.3;88.5
9666;DHT22;4871;52.004;5.924;2024-03-25T02:14:00;5.2;88.7
9666;DHT22;4871;52.004;5.924;2024-03-25T02:15:00;5.2;88.6
9666;DHT22;4871;52.004;5.924;2024-03-25T02:16:00;5.2;88.4
9666;DHT22;4871;52.004;5.924;2024-03-25T02:17:01;5.2;88.8
9666;DHT22;4871;52.004;5.924;2024-03-25T02:18:00;5.2;88.6
9666;DHT22;4871;52.004;5.924;2024-03-25T02:19:00;5.2;88.4
9666;DHT22;4871;52.004;5.924;2024-03-25T02:20:00;5.2;88.6
9666;DHT22;4871;52.004;5.924;2024-03-25T02:21:00;5.2;88.7
9666;DHT22;4871;52.004;5.924;2024-03-25T02:22:00;5.2;88.9
9666;DHT22;4871;52.004;5.924;2024-03-25T02:23:00;5.2;88.6
9666;DHT22;4871;52.004;5.924;2024-03-25T02:24:05;5.2;88.7
9666;DHT22;4871;52.004;5.924;2024-03-25T02:25:01;5.2;88.8
9666;DHT22;4871;52.004;5.924;2024-03-25T02:26:00;5.2;88.5
9666;DHT22;4871;52.004;5.924;2024-03-25T02:27:00;5.1;88.8
9666;DHT22;4871;52.004;5.924;2024-03-25T02:28:01;5.1;88.9
9666;DHT22;4871;52.004;5.924;2024-03-25T02:29:00;5.1;88.9
9666;DHT22;4871;52.004;5.924;2024-03-25T02:30:03;5.2;88.6
9666;DHT22;4871;52.004;5.924;2024-03-25T02:31:00;5.1;88.6
9666;DHT22;4871;52.004;5.924;2024-03-25T02:32:00;5.1;88.9
9666;DHT22;4871;52.004;5.924;2024-03-25T02:33:00;5.1;88.8
9666;DHT22;4871;52.004;5.924;2024-03-25T02:34:00;5.1;88.8
9666;DHT22;4871;52.004;5.924;2024-03-25T02:35:02;5.1;88.8
9666;DHT22;4871;52.004;5.924;2024-03-25T02:36:00;5.1;88.8
9666;DHT22;4871;52.004;5.924;2024-03-25T02:37:00;5.1;89.0
9666;DHT22;4871;52.004;5.924;2024-03-25T02:38:00;5.1;88.8
9666;DHT22;4871;52.004;5.924;2024-03-25T02:39:00;5.1;88.8
9666;DHT22;4871;52.004;5.924;2024-03-25T02:40:01;5.1;88.6
9666;DHT22;4871;52.004;5.924;2024-03-25T02:41:01;5.1;88.6
9666;DHT22;4871;52.004;5.924;2024-03-25T02:42:00;5.1;88.8
9666;DHT22;4871;52.004;5.924;2024-03-25T02:43:00;5.1;88.8
9666;DHT22;4871;52.004;5.924;2024-03-25T02:44:00;5.2;88.8
9666;DHT22;4871;52.004;5.924;2024-03-25T02:45:00;5.1;88.7
9666;DHT22;4871;52.004;5.924;2024-03-25T02:46:00;5.1;88.6
9666;DHT22;4871;52.004;5.924;2024-03-25T02:47:01;5.2;88.6
9666;DHT22;4871;52.004;5.924;2024-03-25T02:48:00;5.2;88.5
9666;DHT22;4871;52.004;5.924;2024-03-25T02:49:00;5.1;88.5
9666;DHT22;4871;52.004;5.924;2024-03-25T02:50:00;5.1;88.9
9666;DHT22;4871;52.004;5.924;2024-03-25T02:51:00;5.1;88.8
9666;DHT22;4871;52.004;5.924;2024-03-25T02:52:00;5.1;88.9
9666;DHT22;4871;52.004;5.924;2024-03-25T02:53:00;5.1;88.7
9666;DHT22;4871;52.004;5.924;2024-03-25T02:54:00;5.1;88.9
9666;DHT22;4871;52.004;5.924;2024-03-25T02:55:01;5.1;88.9
9666;DHT22;4871;52.004;5.924;2024-03-25T02:56:00;5.1;88.7
9666;DHT22;4871;52.004;5.924;2024-03-25T02:57:00;5.1;88.9
9666;DHT22;4871;52.004;5.924;2024-03-25T02:58:00;5.2;88.8
9666;DHT22;4871;52.004;5.924;2024-03-25T02:59:00;5.1;89.1
9666;DHT22;4871;52.004;5.924;2024-03-25T03:00:00;5.2;89.0
9666;DHT22;4871;52.004;5.924;2024-03-25T03:01:00;5.2;88.9
9666;DHT22;4871;52.004;5.924;2024-03-25T03:02:00;5.2;88.9
9666;DHT22;4871;52.004;5.924;2024-03-25T03:03:00;5.2;88.9
9666;DHT22;4871;52.004;5.924;2024-03-25T03:04:00;5.2;89.0
9666;DHT22;4871;52.004;5.924;2024-03-25T03:05:02;5.2;89.0
9666;DHT22;4871;52.004;5.924;2024-03-25T03:06:00;5.2;89.1
9666;DHT22;4871;52.004;5.924;2024-03-25T03:07:00;5.2;89.2
9666;DHT22;4871;52.004;5.924;2024-03-25T03:08:00;5.2;88.9
9666;DHT22;4871;52.004;5.924;2024-03-25T03:09:00;5.3;88.9
9666;DHT22;4871;52.004;5.924;2024-03-25T03:10:00;5.3;88.8
9666;DHT22;4871;52.004;5.924;2024-03-25T03:11:00;5.3;88.7
9666;DHT22;4871;52.004;5.924;2024-03-25T03:12:00;5.3;88.8
9666;DHT22;4871;52.004;5.924;2024-03-25T03:13:00;5.3;88.8
9666;DHT22;4871;52.004;5.924;2024-03-25T03:14:00;5.3;88.9
9666;DHT22;4871;52.004;5.924;2024-03-25T03:15:00;5.3;88.9
9666;DHT22;4871;52.004;5.924;2024-03-25T03:16:00;5.3;89.0
9666;DHT22;4871;52.004;5.924;2024-03-25T03:17:04;5.3;88.8
9666;DHT22;4871;52.004;5.924;2024-03-25T03:18:00;5.3;88.7
9666;DHT22;4871;52.004;5.924;2024-03-25T03:19:00;5.3;88.6
9666;DHT22;4871;52.004;5.924;2024-03-25T03:20:00;5.3;88.9
9666;DHT22;4871;52.004;5.924;2024-03-25T03:21:01;5.3;88.9
9666;DHT22;4871;52.004;5.924;2024-03-25T03:22:00;5.3;89.0
9666;DHT22;4871;52.004;5.924;2024-03-25T03:23:00;5.3;88.9
9666;DHT22;4871;52.004;5.924;2024-03-25T03:24:00;5.3;88.9
9666;DHT22;4871;52.004;5.924;2024-03-25T03:25:00;5.4;88.8
9666;DHT22;4871;52.004;5.924;2024-03-25T03:26:00;5.4;88.7
9666;DHT22;4871;52.004;5.924;2024-03-25T03:27:00;5.4;88.7
9666;DHT22;4871;52.004;5.924;2024-03-25T03:28:00;5.4;88.7
9666;DHT22;4871;52.004;5.924;2024-03-25T03:29:00;5.4;88.8
9666;DHT22;4871;52.004;5.924;2024-03-25T03:30:00;5.4;88.7
9666;DHT22;4871;52.004;5.924;2024-03-25T03:31:00;5.4;88.6
9666;DHT22;4871;52.004;5.924;2024-03-25T03:32:00;5.3;88.8
9666;DHT22;4871;52.004;5.924;2024-03-25T03:33:00;5.4;88.7
9666;DHT22;4871;52.004;5.924;2024-03-25T03:34:00;5.4;88.7
9666;DHT22;4871;52.004;5.924;2024-03-25T03:35:00;5.4;88.8
9666;DHT22;4871;52.004;5.924;2024-03-25T03:36:00;5.4;88.8
9666;DHT22;4871;52.004;5.924;2024-03-25T03:37:00;5.3;88.8
9666;DHT22;4871;52.004;5.924;2024-03-25T03:38:00;5.4;88.7
9666;DHT22;4871;52.004;5.924;2024-03-25T03:39:00;5.3;88.7
9666;DHT22;4871;52.004;5.924;2024-03-25T03:40:00;5.3;88.7
9666;DHT22;4871;52.004;5.924;2024-03-25T03:41:02;5.4;88.7
9666;DHT22;4871;52.004;5.924;2024-03-25T03:42:00;5.3;88.7
9666;DHT22;4871;52.004;5.924;2024-03-25T03:43:00;5.4;88.7
9666;DHT22;4871;52.004;5.924;2024-03-25T03:44:00;5.4;88.6
9666;DHT22;4871;52.004;5.924;2024-03-25T03:45:00;5.4;88.7
9666;DHT22;4871;52.004;5.924;2024-03-25T03:46:00;5.4;88.6
9666;DHT22;4871;52.004;5.924;2024-03-25T03:47:00;5.4;88.6
9666;DHT22;4871;52.004;5.924;2024-03-25T03:48:00;5.3;88.6
9666;DHT22;4871;52.004;5.924;2024-03-25T03:49:00;5.3;88.5
9666;DHT22;4871;52.004;5.924;2024-03-25T03:50:00;5.3;88.7
9666;DHT22;4871;52.004;5.924;2024-03-25T03:51:00;5.3;88.7
9666;DHT22;4871;52.004;5.924;2024-03-25T03:52:00;5.3;88.6
9666;DHT22;4871;52.004;5.924;2024-03-25T03:53:00;5.3;88.8
9666;DHT22;4871;52.004;5.924;2024-03-25T03:54:00;5.3;88.6
9666;DHT22;4871;52.004;5.924;2024-03-25T03:55:00;5.3;88.5
9666;DHT22;4871;52.004;5.924;2024-03-25T03:56:03;5.3;88.6
9666;DHT22;4871;52.004;5.924;2024-03-25T03:57:00;5.3;88.5
9666;DHT22;4871;52.004;5.924;2024-03-25T03:58:00;5.3;88.6
9666;DHT22;4871;52.004;5.924;2024-03-25T03:59:00;5.3;88.6
9666;DHT22;4871;52.004;5.924;2024-03-25T04:00:00;5.3;88.6
9666;DHT22;4871;52.004;5.924;2024-03-25T04:01:00;5.3;88.8
9666;DHT22;4871;52.004;5.924;2024-03-25T04:02:00;5.3;88.7
9666;DHT22;4871;52.004;5.924;2024-03-25T04:03:00;5.3;88.7
9666;DHT22;4871;52.004;5.924;2024-03-25T04:04:00;5.3;88.5
9666;DHT22;4871;52.004;5.924;2024-03-25T04:05:00;5.3;88.6
9666;DHT22;4871;52.004;5.924;2024-03-25T04:06:07;5.3;88.7
9666;DHT22;4871;52.004;5.924;2024-03-25T04:07:01;5.2;88.6
9666;DHT22;4871;52.004;5.924;2024-03-25T04:08:00;5.2;88.4
9666;DHT22;4871;52.004;5.924;2024-03-25T04:09:00;5.2;88.6
9666;DHT22;4871;52.004;5.924;2024-03-25T04:10:00;5.2;88.4
9666;DHT22;4871;52.004;5.924;2024-03-25T04:11:01;5.2;88.5
9666;DHT22;4871;52.004;5.924;2024-03-25T04:12:00;5.2;88.2
9666;DHT22;4871;52.004;5.924;2024-03-25T04:13:00;5.2;88.8
9666;DHT22;4871;52.004;5.924;2024-03-25T04:14:00;5.2;88.4
9666;DHT22;4871;52.004;5.924;2024-03-25T04:15:00;5.2;88.6
9666;DHT22;4871;52.004;5.924;2024-03-25T04:16:03;5.2;88.5
9666;DHT22;4871;52.004;5.924;2024-03-25T04:17:00;5.1;88.6
9666;DHT22;4871;52.004;5.924;2024-03-25T04:18:00;5.1;88.6
9666;DHT22;4871;52.004;5.924;2024-03-25T04:19:00;5.1;88.6
9666;DHT22;4871;52.004;5.924;2024-03-25T04:20:00;5.1;88.6
9666;DHT22;4871;52.004;5.924;2024-03-25T04:21:00;5.1;88.4
9666;DHT22;4871;52.004;5.924;2024-03-25T04:22:00;5.1;88.6
9666;DHT22;4871;52.004;5.924;2024-03-25T04:23:00;5.1;88.5
9666;DHT22;4871;52.004;5.924;2024-03-25T04:24:01;5.1;88.6
9666;DHT22;4871;52.004;5.924;2024-03-25T04:25:00;5.1;88.5
9666;DHT22;4871;52.004;5.924;2024-03-25T04:26:00;5.0;88.7
9666;DHT22;4871;52.004;5.924;2024-03-25T04:27:00;5.0;88.6
9666;DHT22;4871;52.004;5.924;2024-03-25T04:28:00;5.0;88.6
9666;DHT22;4871;52.004;5.924;2024-03-25T04:29:00;5.0;88.5
9666;DHT22;4871;52.004;5.924;2024-03-25T04:30:00;5.0;88.6
9666;DHT22;4871;52.004;5.924;2024-03-25T04:31:00;5.0;88.8
9666;DHT22;4871;52.004;5.924;2024-03-25T04:32:00;5.0;88.7
9666;DHT22;4871;52.004;5.924;2024-03-25T04:33:00;5.0;88.8
9666;DHT22;4871;52.004;5.924;2024-03-25T04:34:00;5.0;88.6
9666;DHT22;4871;52.004;5.924;2024-03-25T04:35:00;4.9;88.7
9666;DHT22;4871;52.004;5.924;2024-03-25T04:36:00;5.0;88.7
9666;DHT22;4871;52.004;5.924;2024-03-25T04:37:00;5.0;88.8
9666;DHT22;4871;52.004;5.924;2024-03-25T04:38:00;5.0;88.7
9666;DHT22;4871;52.004;5.924;2024-03-25T04:39:00;5.0;88.7
9666;DHT22;4871;52.004;5.924;2024-03-25T04:40:00;4.9;88.5
9666;DHT22;4871;52.004;5.924;2024-03-25T04:41:00;4.9;88.6
9666;DHT22;4871;52.004;5.924;2024-03-25T04:42:00;4.9;88.6
9666;DHT22;4871;52.004;5.924;2024-03-25T04:43:00;4.9;88.7
9666;DHT22;4871;52.004;5.924;2024-03-25T04:44:00;4.9;88.6
9666;DHT22;4871;52.004;5.924;2024-03-25T04:45:00;4.9;88.5
9666;DHT22;4871;52.004;5.924;2024-03-25T04:46:00;4.9;88.7
9666;DHT22;4871;52.004;5.924;2024-03-25T04:47:00;4.9;88.7
9666;DHT22;4871;52.004;5.924;2024-03-25T04:48:00;4.9;88.6
9666;DHT22;4871;52.004;5.924;2024-03-25T04:49:00;4.9;88.6
9666;DHT22;4871;52.004;5.924;2024-03-25T04:50:00;4.8;88.6
9666;DHT22;4871;52.004;5.924;2024-03-25T04:51:00;4.8;88.6
9666;DHT22;4871;52.004;5.924;2024-03-25T04:52:00;4.8;88.6
9666;DHT22;4871;52.004;5.924;2024-03-25T04:53:00;4.8;88.5
9666;DHT22;4871;52.004;5.924;2024-03-25T04:54:00;4.8;88.6
9666;DHT22;4871;52.004;5.924;2024-03-25T04:55:00;4.8;88.6
9666;DHT22;4871;52.004;5.924;2024-03-25T04:56:00;4.8;88.7
9666;DHT22;4871;52.004;5.924;2024-03-25T04:57:00;4.8;88.6
9666;DHT22;4871;52.004;5.924;2024-03-25T04:58:00;4.8;88.6
9666;DHT22;4871;52.004;5.924;2024-03-25T04:59:01;4.8;88.8
9666;DHT22;4871;52.004;5.924;2024-03-25T05:00:00;4.8;88.5
9666;DHT22;4871;52.004;5.924;2024-03-25T05:01:00;4.8;88.8
9666;DHT22;4871;52.004;5.924;2024-03-25T05:02:00;4.8;88.5
9666;DHT22;4871;52.004;5.924;2024-03-25T05:03:00;4.7;88.6
9666;DHT22;4871;52.004;5.924;2024-03-25T05:04:00;4.7;88.6
9666;DHT22;4871;52.004;5.924;2024-03-25T05:05:00;4.7;88.7
9666;DHT22;4871;52.004;5.924;2024-03-25T05:06:00;4.7;88.6
9666;DHT22;4871;52.004;5.924;2024-03-25T05:07:00;4.7;88.7
9666;DHT22;4871;52.004;5.924;2024-03-25T05:08:04;4.7;88.6
9666;DHT22;4871;52.004;5.924;2024-03-25T05:09:00;4.7;88.5
9666;DHT22;4871;52.004;5.924;2024-03-25T05:10:00;4.7;88.4
9666;DHT22;4871;52.004;5.924;2024-03-25T05:11:00;4.7;88.7
9666;DHT22;4871;52.004;5.924;2024-03-25T05:12:00;4.7;88.7
9666;DHT22;4871;52.004;5.924;2024-03-25T05:13:00;4.7;88.6
9666;DHT22;4871;52.004;5.924;2024-03-25T05:14:00;4.7;88.7
9666;DHT22;4871;52.004;5.924;2024-03-25T05:15:00;4.6;88.8
9666;DHT22;4871;52.004;5.924;2024-03-25T05:16:00;4.6;88.9
9666;DHT22;4871;52.004;5.924;2024-03-25T05:17:02;4.7;88.6
9666;DHT22;4871;52.004;5.924;2024-03-25T05:18:00;4.6;88.6
9666;DHT22;4871;52.004;5.924;2024-03-25T05:19:00;4.6;88.7
9666;DHT22;4871;52.004;5.924;2024-03-25T05:20:00;4.6;88.6
9666;DHT22;4871;52.004;5.924;2024-03-25T05:21:00;4.6;88.9
9666;DHT22;4871;52.004;5.924;2024-03-25T05:22:00;4.6;88.7
9666;DHT22;4871;52.004;5.924;2024-03-25T05:23:00;4.6;88.6
9666;DHT22;4871;52.004;5.924;2024-03-25T05:24:01;4.6;88.6
9666;DHT22;4871;52.004;5.924;2024-03-25T05:25:00;4.6;88.5
9666;DHT22;4871;52.004;5.924;2024-03-25T05:26:00;4.6;88.6
9666;DHT22;4871;52.004;5.924;2024-03-25T05:27:01;4.6;88.5
9666;DHT22;4871;52.004;5.924;2024-03-25T05:28:00;4.6;88.8
9666;DHT22;4871;52.004;5.924;2024-03-25T05:29:00;4.6;88.7
9666;DHT22;4871;52.004;5.924;2024-03-25T05:30:00;4.6;88.5
9666;DHT22;4871;52.004;5.924;2024-03-25T05:31:05;4.6;88.6
9666;DHT22;4871;52.004;5.924;2024-03-25T05:32:01;4.6;88.8
9666;DHT22;4871;52.004;5.924;2024-03-25T05:33:00;4.6;88.7
9666;DHT22;4871;52.004;5.924;2024-03-25T05:34:02;4.6;88.6
9666;DHT22;4871;52.004;5.924;2024-03-25T05:35:00;4.6;88.5
9666;DHT22;4871;52.004;5.924;2024-03-25T05:36:01;4.6;88.8
9666;DHT22;4871;52.004;5.924;2024-03-25T05:37:00;4.6;88.6
9666;DHT22;4871;52.004;5.924;2024-03-25T05:38:01;4.6;88.6
9666;DHT22;4871;52.004;5.924;2024-03-25T05:39:00;4.6;88.6
9666;DHT22;4871;52.004;5.924;2024-03-25T05:40:00;4.5;88.7
9666;DHT22;4871;52.004;5.924;2024-03-25T05:41:00;4.6;88.6
9666;DHT22;4871;52.004;5.924;2024-03-25T05:42:00;4.6;88.6
9666;DHT22;4871;52.004;5.924;2024-03-25T05:43:00;4.6;88.7
9666;DHT22;4871;52.004;5.924;2024-03-25T05:44:00;4.6;88.7
9666;DHT22;4871;52.004;5.924;2024-03-25T05:45:00;4.5;88.4
9666;DHT22;4871;52.004;5.924;2024-03-25T05:46:00;4.5;88.6
9666;DHT22;4871;52.004;5.924;2024-03-25T05:47:00;4.5;88.7
9666;DHT22;4871;52.004;5.924;2024-03-25T05:48:00;4.5;88.7
9666;DHT22;4871;52.004;5.924;2024-03-25T05:49:02;4.5;88.6
9666;DHT22;4871;52.004;5.924;2024-03-25T05:50:02;4.5;88.7
9666;DHT22;4871;52.004;5.924;2024-03-25T05:51:00;4.5;88.7
9666;DHT22;4871;52.004;5.924;2024-03-25T05:52:00;4.5;88.7
9666;DHT22;4871;52.004;5.924;2024-03-25T05:53:00;4.5;88.7
9666;DHT22;4871;52.004;5.924;2024-03-25T05:54:00;4.5;88.7
9666;DHT22;4871;52.004;5.924;2024-03-25T05:55:00;4.5;88.5
9666;DHT22;4871;52.004;5.924;2024-03-25T05:56:00;4.5;88.7
9666;DHT22;4871;52.004;5.924;2024-03-25T05:57:00;4.5;88.6
9666;DHT22;4871;52.004;5.924;2024-03-25T05:58:00;4.6;88.5
9666;DHT22;4871;52.004;5.924;2024-03-25T05:59:01;4.5;88.5
9666;DHT22;4871;52.004;5.924;2024-03-25T06:00:00;4.6;88.6
9666;DHT22;4871;52.004;5.924;2024-03-25T06:01:01;4.5;88.6
9666;DHT22;4871;52.004;5.924;2024-03-25T06:02:00;4.5;88.7
9666;DHT22;4871;52.004;5.924;2024-03-25T06:03:00;4.5;88.7
9666;DHT22;4871;52.004;5.924;2024-03-25T06:04:00;4.5;88.4
9666;DHT22;4871;52.004;5.924;2024-03-25T06:05:00;4.6;88.7
9666;DHT22;4871;52.004;5.924;2024-03-25T06:06:01;4.6;88.7
9666;DHT22;4871;52.004;5.924;2024-03-25T06:07:00;4.5;88.7
9666;DHT22;4871;52.004;5.924;2024-03-25T06:08:00;4.5;88.4
9666;DHT22;4871;52.004;5.924;2024-03-25T06:09:01;4.5;88.6
9666;DHT22;4871;52.004;5.924;2024-03-25T06:10:00;4.6;88.5
9666;DHT22;4871;52.004;5.924;2024-03-25T06:11:01;4.6;88.3
9666;DHT22;4871;52.004;5.924;2024-03-25T06:12:00;4.6;88.4
9666;DHT22;4871;52.004;5.924;2024-03-25T06:13:00;4.6;88.4
9666;DHT22;4871;52.004;5.924;2024-03-25T06:14:00;4.6;88.4
9666;DHT22;4871;52.004;5.924;2024-03-25T06:15:01;4.6;88.4
9666;DHT22;4871;52.004;5.924;2024-03-25T06:16:00;4.6;88.5
9666;DHT22;4871;52.004;5.924;2024-03-25T06:17:00;4.6;88.4
9666;DHT22;4871;52.004;5.924;2024-03-25T06:18:00;4.6;88.4
9666;DHT22;4871;52.004;5.924;2024-03-25T06:19:00;4.7;88.2
9666;DHT22;4871;52.004;5.924;2024-03-25T06:20:00;4.7;88.4
9666;DHT22;4871;52.004;5.924;2024-03-25T06:21:00;4.7;88.3
9666;DHT22;4871;52.004;5.924;2024-03-25T06:22:00;4.7;88.1
9666;DHT22;4871;52.004;5.924;2024-03-25T06:23:01;4.7;87.9
9666;DHT22;4871;52.004;5.924;2024-03-25T06:24:00;4.7;88.1
9666;DHT22;4871;52.004;5.924;2024-03-25T06:25:00;4.7;88.0
9666;DHT22;4871;52.004;5.924;2024-03-25T06:26:00;4.8;87.9
9666;DHT22;4871;52.004;5.924;2024-03-25T06:27:00;4.8;88.0
9666;DHT22;4871;52.004;5.924;2024-03-25T06:28:00;4.8;87.9
9666;DHT22;4871;52.004;5.924;2024-03-25T06:29:00;4.8;87.8
9666;DHT22;4871;52.004;5.924;2024-03-25T06:30:12;4.8;87.7
9666;DHT22;4871;52.004;5.924;2024-03-25T06:31:11;4.8;87.8
9666;DHT22;4871;52.004;5.924;2024-03-25T06:32:10;4.9;87.7
9666;DHT22;4871;52.004;5.924;2024-03-25T06:33:11;4.9;87.6
9666;DHT22;4871;52.004;5.924;2024-03-25T06:34:11;4.9;87.4
9666;DHT22;4871;52.004;5.924;2024-03-25T06:35:01;4.9;87.5
9666;DHT22;4871;52.004;5.924;2024-03-25T06:36:00;4.9;87.6
9666;DHT22;4871;52.004;5.924;2024-03-25T06:37:00;4.9;87.6
9666;DHT22;4871;52.004;5.924;2024-03-25T06:38:01;5.0;87.5
9666;DHT22;4871;52.004;5.924;2024-03-25T06:39:00;5.0;87.4
9666;DHT22;4871;52.004;5.924;2024-03-25T06:40:00;5.0;87.5
9666;DHT22;4871;52.004;5.924;2024-03-25T06:41:00;5.0;87.5
9666;DHT22;4871;52.004;5.924;2024-03-25T06:42:00;5.0;87.3
9666;DHT22;4871;52.004;5.924;2024-03-25T06:43:00;5.0;87.4
9666;DHT22;4871;52.004;5.924;2024-03-25T06:44:00;5.1;87.5
9666;DHT22;4871;52.004;5.924;2024-03-25T06:45:00;5.1;87.6
9666;DHT22;4871;52.004;5.924;2024-03-25T06:46:00;5.0;87.7
9666;DHT22;4871;52.004;5.924;2024-03-25T06:47:00;5.1;87.7
9666;DHT22;4871;52.004;5.924;2024-03-25T06:48:00;5.1;87.6
9666;DHT22;4871;52.004;5.924;2024-03-25T06:49:00;5.1;87.7
9666;DHT22;4871;52.004;5.924;2024-03-25T06:50:00;5.1;87.7
9666;DHT22;4871;52.004;5.924;2024-03-25T06:51:01;5.2;87.5